Time;durP1;ratioP1;P1;durP2;ratioP2;P2;SDS_P1;SDS_P2;PMS_P1;PMS_P2;Temp;Humidity;BMP_temperature;BMP_pressure;BME280_temperature;BME280_humidity;BME280_pressure;Samples;Min_cycle;Max_cycle;Signal;HPM_P1;HPM_P2
2023/06/13 00:00:44;;;;;;;0.40;0.40;;;19.20;75.30;;;;;;5095475;28;20062;-70
2023/06/13 00:03:11;;;;;;;0.30;0.30;;;19.10;76.00;;;;;;5095429;28;20031;-70
2023/06/13 00:05:37;;;;;;;0.30;0.30;;;19.20;75.70;;;;;;5095422;28;20384;-71
2023/06/13 00:08:03;;;;;;;0.33;0.33;;;19.10;76.20;;;;;;5095344;28;20052;-70
2023/06/13 00:10:29;;;;;;;0.33;0.33;;;19.10;75.90;;;;;;5094307;28;20039;-70
2023/06/13 00:12:54;;;;;;;0.30;0.30;;;19.00;75.60;;;;;;5095306;28;20085;-70
2023/06/13 00:15:20;;;;;;;0.60;0.60;;;19.00;76.70;;;;;;5095219;28;20044;-70
2023/06/13 00:17:47;;;;;;;0.47;0.40;;;18.90;76.90;;;;;;5095306;28;20032;-70
2023/06/13 00:20:13;;;;;;;0.60;0.60;;;18.90;77.00;;;;;;5095062;28;20036;-70
2023/06/13 00:22:39;;;;;;;0.47;0.47;;;18.80;77.10;;;;;;5095484;28;20086;-70
2023/06/13 00:25:05;;;;;;;0.30;0.30;;;18.80;77.10;;;;;;5095418;28;20274;-70
2023/06/13 00:27:34;;;;;;;0.40;0.40;;;18.70;77.80;;;;;;5094983;28;20036;-70
2023/06/13 00:30:00;;;;;;;0.47;0.47;;;18.70;78.30;;;;;;5094903;28;20051;-70
2023/06/13 00:32:25;;;;;;;0.40;0.40;;;18.70;78.10;;;;;;5094978;28;20127;-69
2023/06/13 00:34:51;;;;;;;0.30;0.30;;;18.60;77.40;;;;;;5094849;28;20040;-70
2023/06/13 00:37:16;;;;;;;1.07;0.97;;;18.60;78.90;;;;;;5094449;28;20028;-69
2023/06/13 00:39:42;;;;;;;13.33;4.70;;;18.60;78.50;;;;;;5093585;28;20132;-70
2023/06/13 00:42:08;;;;;;;3.30;0.93;;;18.50;79.20;;;;;;5095002;28;20040;-70
2023/06/13 00:44:35;;;;;;;1.23;1.13;;;18.50;79.70;;;;;;5094657;28;20040;-71
2023/06/13 00:47:02;;;;;;;2.53;0.60;;;18.40;78.90;;;;;;5094774;28;20142;-70
2023/06/13 00:49:28;;;;;;;0.32;0.32;;;18.40;79.80;;;;;;5094498;28;20093;-70
2023/06/13 00:52:00;;;;;;;0.40;0.40;;;18.30;79.70;;;;;;5094572;28;20043;-69
2023/06/13 00:54:26;;;;;;;0.30;0.30;;;18.30;79.80;;;;;;5094915;28;20170;-70
2023/06/13 00:56:52;;;;;;;0.50;0.50;;;18.30;80.40;;;;;;5094692;28;20039;-69
2023/06/13 00:59:17;;;;;;;0.40;0.40;;;18.30;78.70;;;;;;5094497;28;20058;-69
2023/06/13 01:01:43;;;;;;;1.63;1.53;;;18.20;79.90;;;;;;5094319;28;20040;-71
2023/06/13 01:04:13;;;;;;;0.82;0.82;;;18.10;80.40;;;;;;5094121;28;20036;-70
2023/06/13 01:06:45;;;;;;;0.40;0.40;;;18.10;80.20;;;;;;5094307;28;20044;-70
2023/06/13 01:09:11;;;;;;;0.50;0.50;;;18.00;81.20;;;;;;5094277;28;20040;-70
2023/06/13 01:11:58;;;;;;;0.40;0.40;;;18.00;80.40;;;;;;5094189;28;20042;-70
2023/06/13 01:14:59;;;;;;;0.50;0.50;;;17.80;81.50;;;;;;5094245;28;20047;-71
2023/06/13 01:17:34;;;;;;;0.40;0.40;;;17.80;81.60;;;;;;5094698;28;20341;-70
2023/06/13 01:20:04;;;;;;;0.40;0.40;;;17.80;82.30;;;;;;5093968;28;20120;-70
2023/06/13 01:22:42;;;;;;;0.60;0.60;;;17.70;81.60;;;;;;5094400;28;20369;-70
2023/06/13 01:25:45;;;;;;;0.70;0.70;;;17.70;81.40;;;;;;5093954;28;20128;-70
2023/06/13 01:28:13;;;;;;;0.50;0.50;;;17.70;81.80;;;;;;5093943;28;20040;-70
2023/06/13 01:30:40;;;;;;;0.45;0.45;;;17.70;81.90;;;;;;5093933;28;20119;-70
2023/06/13 01:33:08;;;;;;;0.40;0.40;;;17.60;82.40;;;;;;5094030;28;20086;-70
2023/06/13 01:35:35;;;;;;;0.60;0.60;;;17.70;81.10;;;;;;5093760;28;20387;-71
2023/06/13 01:38:03;;;;;;;0.38;0.38;;;17.70;82.20;;;;;;5094324;28;20032;-70
2023/06/13 01:40:28;;;;;;;0.40;0.40;;;17.60;82.50;;;;;;5093869;28;20036;-70
2023/06/13 01:42:54;;;;;;;0.40;0.40;;;17.60;81.70;;;;;;5093802;28;20055;-69
2023/06/13 01:45:21;;;;;;;0.40;0.40;;;17.60;83.00;;;;;;5093839;28;20123;-69
2023/06/13 01:47:55;;;;;;;;;;;17.60;83.50;;;;;;5094966;28;20462;-70
2023/06/13 01:50:26;;;;;;;11.27;2.05;;;17.60;82.80;;;;;;5097996;28;19920;-69
2023/06/13 01:53:03;;;;;;;0.90;0.50;;;17.50;82.60;;;;;;5097987;28;20101;-69
2023/06/13 01:55:58;;;;;;;0.88;0.80;;;17.50;83.20;;;;;;5097948;28;20083;-70
2023/06/13 01:58:31;;;;;;;0.95;0.70;;;17.40;83.70;;;;;;5097916;28;20055;-69
2023/06/13 02:01:00;;;;;;;0.40;0.40;;;17.30;83.70;;;;;;5097959;28;20126;-70
2023/06/13 02:03:27;;;;;;;0.50;0.50;;;17.30;83.20;;;;;;5098138;28;20036;-70
2023/06/13 02:05:52;;;;;;;0.40;0.40;;;17.30;84.20;;;;;;5097712;28;20071;-69
2023/06/13 02:08:18;;;;;;;0.50;0.50;;;17.20;83.60;;;;;;5097610;28;20040;-70
2023/06/13 02:10:45;;;;;;;;;;;17.20;84.70;;;;;;5098202;28;20126;-69
2023/06/13 02:13:11;;;;;;;0.40;0.40;;;17.20;85.10;;;;;;5097599;28;19955;-69
2023/06/13 02:15:36;;;;;;;0.40;0.40;;;17.10;85.00;;;;;;5097440;28;20046;-70
2023/06/13 02:18:02;;;;;;;0.50;0.50;;;17.10;83.10;;;;;;5097473;28;20468;-70
2023/06/13 02:20:28;;;;;;;1.58;0.75;;;17.10;84.60;;;;;;5097474;28;20051;-70
2023/06/13 02:22:54;;;;;;;0.50;0.50;;;17.10;84.80;;;;;;5097055;28;20036;-70
2023/06/13 02:25:20;;;;;;;0.50;0.50;;;17.00;85.30;;;;;;5097372;28;20077;-70
2023/06/13 02:27:45;;;;;;;0.50;0.50;;;17.00;83.50;;;;;;5097284;28;20032;-70
2023/06/13 02:30:11;;;;;;;0.50;0.50;;;16.90;84.60;;;;;;5097276;28;20047;-70
2023/06/13 02:32:39;;;;;;;0.63;0.63;;;17.00;85.70;;;;;;5097210;28;20044;-70
2023/06/13 02:35:09;;;;;;;0.50;0.50;;;17.00;85.60;;;;;;5097073;28;20175;-70
2023/06/13 02:37:35;;;;;;;0.50;0.50;;;17.00;86.00;;;;;;5097334;28;20095;-69
2023/06/13 02:40:04;;;;;;;0.87;0.60;;;17.00;85.50;;;;;;5097060;28;20511;-70
2023/06/13 02:42:30;;;;;;;0.40;0.40;;;16.90;86.20;;;;;;5096947;28;20055;-69
2023/06/13 02:44:56;;;;;;;0.50;0.50;;;16.90;86.60;;;;;;5096915;28;20036;-70
2023/06/13 02:47:22;;;;;;;0.50;0.50;;;16.80;86.70;;;;;;5096921;28;20502;-70
2023/06/13 02:49:48;;;;;;;0.50;0.50;;;16.80;87.70;;;;;;5096929;28;20036;-70
2023/06/13 02:52:14;;;;;;;0.60;0.60;;;16.70;87.20;;;;;;5097003;28;20537;-70
2023/06/13 02:54:40;;;;;;;0.40;0.40;;;16.70;87.70;;;;;;5095596;28;20480;-69
2023/06/13 02:57:06;;;;;;;0.50;0.50;;;16.70;87.10;;;;;;5096613;28;20038;-69
2023/06/13 02:59:32;;;;;;;0.50;0.50;;;16.70;87.10;;;;;;5096440;28;20042;-70
2023/06/13 03:01:58;;;;;;;0.40;0.40;;;16.60;87.20;;;;;;5096883;28;20122;-70
2023/06/13 03:04:24;;;;;;;0.50;0.50;;;16.60;88.80;;;;;;5096149;28;20074;-70
2023/06/13 03:06:51;;;;;;;0.50;0.50;;;16.50;88.70;;;;;;5096497;28;20040;-70
2023/06/13 03:09:18;;;;;;;0.43;0.43;;;16.50;88.40;;;;;;5096357;28;20093;-70
2023/06/13 03:11:44;;;;;;;0.50;0.50;;;16.50;88.40;;;;;;5095042;28;20508;-70
2023/06/13 03:14:10;;;;;;;0.63;0.63;;;16.40;89.50;;;;;;5096381;28;20036;-70
2023/06/13 03:16:35;;;;;;;0.60;0.60;;;16.40;87.40;;;;;;5096237;28;20040;-71
2023/06/13 03:19:02;;;;;;;0.50;0.50;;;16.50;89.50;;;;;;5096651;28;20040;-69
2023/06/13 03:21:28;;;;;;;;;;;16.50;89.30;;;;;;5096377;28;20476;-70
2023/06/13 03:23:54;;;;;;;0.50;0.50;;;16.50;89.20;;;;;;5096046;28;19927;-69
2023/06/13 03:26:19;;;;;;;0.50;0.50;;;16.50;89.50;;;;;;5095871;28;20038;-70
2023/06/13 03:28:45;;;;;;;0.50;0.50;;;16.70;89.50;;;;;;5096126;28;20133;-70
2023/06/13 03:31:11;;;;;;;0.40;0.40;;;16.50;90.40;;;;;;5096427;28;20093;-71
2023/06/13 03:33:37;;;;;;;0.70;0.70;;;16.40;90.20;;;;;;5096021;28;20036;-69
2023/06/13 03:36:03;;;;;;;0.63;0.63;;;16.40;89.90;;;;;;5095896;28;20341;-69
2023/06/13 03:38:29;;;;;;;0.50;0.50;;;16.40;90.00;;;;;;5095942;28;20090;-70
2023/06/13 03:40:55;;;;;;;0.50;0.50;;;16.40;90.50;;;;;;5096165;28;20472;-70
2023/06/13 03:43:20;;;;;;;0.70;0.70;;;16.30;89.60;;;;;;5095850;28;20032;-70
2023/06/13 03:45:48;;;;;;;0.50;0.50;;;16.40;90.30;;;;;;5095956;28;20036;-70
2023/06/13 03:48:14;;;;;;;0.50;0.50;;;16.40;90.20;;;;;;5095715;28;20468;-69
2023/06/13 03:50:39;;;;;;;0.40;0.40;;;16.30;90.40;;;;;;5095697;28;20127;-70
2023/06/13 03:53:05;;;;;;;0.60;0.53;;;16.30;91.30;;;;;;5095738;28;20071;-69
2023/06/13 03:55:31;;;;;;;0.60;0.60;;;16.30;90.80;;;;;;5095481;28;20521;-70
2023/06/13 03:57:58;;;;;;;0.40;0.40;;;16.40;90.50;;;;;;5095548;28;20518;-70
2023/06/13 04:00:23;;;;;;;0.40;0.40;;;16.40;90.70;;;;;;5095536;28;20035;-70
2023/06/13 04:02:49;;;;;;;0.60;0.60;;;16.40;90.30;;;;;;5095410;28;20663;-70
2023/06/13 04:05:16;;;;;;;0.40;0.40;;;16.50;90.00;;;;;;5095485;28;20053;-70
2023/06/13 04:07:42;;;;;;;0.40;0.40;;;16.50;89.40;;;;;;5095275;28;20048;-70
2023/06/13 04:10:08;;;;;;;0.40;0.40;;;16.50;90.40;;;;;;5095027;28;20039;-70
2023/06/13 04:12:33;;;;;;;0.30;0.30;;;16.50;90.60;;;;;;5095138;28;20538;-69
2023/06/13 04:14:59;;;;;;;1.20;1.10;;;16.50;90.30;;;;;;5095628;28;20032;-70
2023/06/13 04:17:25;;;;;;;0.40;0.40;;;16.40;89.70;;;;;;5095098;28;20036;-70
2023/06/13 04:19:53;;;;;;;0.50;0.50;;;16.50;91.20;;;;;;5095119;28;20067;-70
2023/06/13 04:22:19;;;;;;;0.60;0.60;;;16.40;90.90;;;;;;5095222;28;20048;-70
2023/06/13 04:24:48;;;;;;;0.40;0.40;;;16.40;91.00;;;;;;5094971;28;20075;-70
2023/06/13 04:27:19;;;;;;;0.50;0.50;;;16.40;90.90;;;;;;5094724;28;20486;-69
2023/06/13 04:29:48;;;;;;;4.18;2.58;;;16.40;91.00;;;;;;5094114;28;20089;-70
2023/06/13 04:32:17;;;;;;;0.40;0.40;;;16.30;90.70;;;;;;5094895;28;20085;-69
2023/06/13 04:34:52;;;;;;;0.40;0.40;;;16.40;91.20;;;;;;5094816;28;20490;-70
2023/06/13 04:37:23;;;;;;;1.05;0.75;;;16.50;91.30;;;;;;5094785;28;20044;-70
2023/06/13 04:39:51;;;;;;;0.40;0.40;;;16.40;91.60;;;;;;5094822;28;20086;-70
2023/06/13 04:42:29;;;;;;;0.40;0.40;;;16.50;91.50;;;;;;5094698;28;20047;-70
2023/06/13 04:44:58;;;;;;;0.30;0.30;;;16.50;91.50;;;;;;5095068;28;20051;-69
2023/06/13 04:47:24;;;;;;;0.40;0.40;;;16.50;92.00;;;;;;5094671;28;20044;-69
2023/06/13 04:49:58;;;;;;;0.30;0.30;;;16.40;91.50;;;;;;5094463;28;20044;-70
2023/06/13 04:52:32;;;;;;;0.45;0.45;;;16.40;91.20;;;;;;5094602;28;20043;-70
2023/06/13 04:55:00;;;;;;;0.40;0.40;;;16.50;91.20;;;;;;5094530;28;20048;-70
2023/06/13 04:57:26;;;;;;;0.50;0.50;;;16.60;91.10;;;;;;5094372;28;20468;-70
2023/06/13 04:59:52;;;;;;;0.38;0.38;;;16.60;91.00;;;;;;5094509;28;20050;-70
2023/06/13 05:02:17;;;;;;;0.40;0.40;;;16.60;90.50;;;;;;5093409;28;20469;-69
2023/06/13 05:04:44;;;;;;;4.40;2.57;;;16.70;90.40;;;;;;5094103;28;20052;-70
2023/06/13 05:07:15;;;;;;;0.55;0.55;;;16.70;90.90;;;;;;5093969;28;20063;-70
2023/06/13 05:09:44;;;;;;;0.30;0.30;;;16.80;90.30;;;;;;5094338;28;20039;-69
2023/06/13 05:12:10;;;;;;;0.50;0.50;;;16.80;90.30;;;;;;5094187;28;20114;-70
2023/06/13 05:14:42;;;;;;;0.30;0.30;;;16.90;90.80;;;;;;5094175;28;20079;-69
2023/06/13 05:17:09;;;;;;;0.40;0.40;;;16.90;90.80;;;;;;5094016;28;20036;-70
2023/06/13 05:19:35;;;;;;;0.40;0.40;;;16.90;90.00;;;;;;5094083;28;20051;-69
2023/06/13 05:22:05;;;;;;;0.50;0.50;;;17.00;90.90;;;;;;5093846;28;20040;-70
2023/06/13 05:24:32;;;;;;;0.40;0.40;;;17.20;90.60;;;;;;5093728;28;20472;-70
2023/06/13 05:26:58;;;;;;;;;;;17.40;90.00;;;;;;5094203;28;20484;-70
2023/06/13 05:29:24;;;;;;;0.40;0.40;;;17.70;90.00;;;;;;5093681;28;19923;-70
2023/06/13 05:31:50;;;;;;;0.47;0.47;;;18.00;90.10;;;;;;5092897;28;20123;-69
2023/06/13 05:34:15;;;;;;;0.40;0.40;;;18.30;87.60;;;;;;5093895;28;20513;-70
2023/06/13 05:36:41;;;;;;;0.77;0.77;;;18.60;87.90;;;;;;5093770;28;20081;-69
2023/06/13 05:39:08;;;;;;;0.43;0.43;;;18.90;86.80;;;;;;5093895;28;20040;-70
2023/06/13 05:41:34;;;;;;;0.40;0.40;;;19.20;87.20;;;;;;5093924;28;20040;-70
2023/06/13 05:44:00;;;;;;;0.60;0.50;;;19.50;85.90;;;;;;5093812;28;20048;-70
2023/06/13 05:46:26;;;;;;;0.40;0.40;;;19.80;84.20;;;;;;5093473;28;20538;-71
2023/06/13 05:48:51;;;;;;;0.40;0.40;;;20.00;84.30;;;;;;5093757;28;20080;-71
2023/06/13 05:51:19;;;;;;;0.40;0.40;;;20.10;83.50;;;;;;5092545;28;20044;-69
2023/06/13 05:53:46;;;;;;;0.40;0.40;;;20.20;84.30;;;;;;5094290;28;20127;-70
2023/06/13 05:56:11;;;;;;;0.30;0.30;;;20.60;83.00;;;;;;5093649;28;20039;-70
2023/06/13 05:58:37;;;;;;;0.77;0.77;;;20.80;83.60;;;;;;5093682;28;20448;-70
2023/06/13 06:01:03;;;;;;;0.40;0.40;;;21.10;82.20;;;;;;5093660;28;20044;-70
2023/06/13 06:03:30;;;;;;;0.40;0.40;;;21.30;81.60;;;;;;5093656;28;20044;-70
2023/06/13 06:05:55;;;;;;;0.40;0.40;;;21.40;81.30;;;;;;5094183;28;20040;-70
2023/06/13 06:08:21;;;;;;;0.43;0.43;;;21.50;80.30;;;;;;5093810;28;20055;-70
2023/06/13 06:10:46;;;;;;;0.40;0.40;;;21.50;80.40;;;;;;5093797;28;20495;-70
2023/06/13 06:13:12;;;;;;;0.30;0.30;;;21.30;79.70;;;;;;5093476;28;20460;-70
2023/06/13 06:15:39;;;;;;;0.30;0.30;;;21.40;80.70;;;;;;5093475;28;20446;-69
2023/06/13 06:18:04;;;;;;;;;;;21.50;80.20;;;;;;5093915;28;20047;-70
2023/06/13 06:20:30;;;;;;;0.30;0.30;;;21.60;79.40;;;;;;5092796;28;20313;-70
2023/06/13 06:22:58;;;;;;;0.43;0.43;;;21.60;80.20;;;;;;5093399;28;20036;-70
2023/06/13 06:25:23;;;;;;;0.45;0.45;;;21.60;79.60;;;;;;5093480;28;20414;-70
2023/06/13 06:27:53;;;;;;;0.50;0.50;;;21.60;79.00;;;;;;5093513;28;20086;-70
2023/06/13 06:30:35;;;;;;;0.30;0.30;;;21.60;78.60;;;;;;5093519;28;20035;-70
2023/06/13 06:33:03;;;;;;;0.30;0.30;;;21.60;79.00;;;;;;5092253;28;20044;-70
2023/06/13 06:35:29;;;;;;;1.50;0.80;;;21.70;79.60;;;;;;5095623;28;20058;-71
2023/06/13 06:37:55;;;;;;;0.40;0.40;;;21.80;80.10;;;;;;5097100;28;20051;-69
2023/06/13 06:40:21;;;;;;;0.40;0.40;;;21.80;79.90;;;;;;5097154;28;20032;-70
2023/06/13 06:42:46;;;;;;;0.40;0.40;;;21.70;79.10;;;;;;5096986;28;20499;-69
2023/06/13 06:45:12;;;;;;;0.33;0.33;;;21.70;79.10;;;;;;5097348;28;20075;-70
2023/06/13 06:47:38;;;;;;;0.40;0.40;;;21.80;80.00;;;;;;5096975;28;20118;-69
2023/06/13 06:50:04;;;;;;;0.30;0.30;;;21.80;79.50;;;;;;5096866;28;20039;-69
2023/06/13 06:52:30;;;;;;;18.10;2.47;;;21.70;79.10;;;;;;5096487;28;20468;-70
2023/06/13 06:54:56;;;;;;;0.30;0.30;;;21.80;79.80;;;;;;5096576;28;20047;-70
2023/06/13 06:57:21;;;;;;;0.30;0.30;;;21.80;78.80;;;;;;5096715;28;20533;-70
2023/06/13 06:59:47;;;;;;;0.33;0.33;;;21.80;79.20;;;;;;5096593;28;20418;-70
2023/06/13 07:02:12;;;;;;;0.63;0.63;;;21.80;79.40;;;;;;5096667;28;20078;-69
2023/06/13 07:04:38;;;;;;;0.30;0.30;;;21.90;79.50;;;;;;5096486;28;20052;-69
2023/06/13 07:07:04;;;;;;;0.30;0.30;;;21.90;79.80;;;;;;5096608;28;20478;-69
2023/06/13 07:09:29;;;;;;;0.40;0.40;;;22.10;79.50;;;;;;5096528;28;20048;-70
2023/06/13 07:11:57;;;;;;;0.30;0.30;;;22.30;78.70;;;;;;5096417;28;20600;-69
2023/06/13 07:14:25;;;;;;;0.30;0.30;;;22.40;78.10;;;;;;5096842;28;20036;-69
2023/06/13 07:16:50;;;;;;;0.93;0.88;;;22.50;78.20;;;;;;5096295;28;20040;-69
2023/06/13 07:19:16;;;;;;;0.57;0.57;;;22.50;78.20;;;;;;5096639;28;20089;-70
2023/06/13 07:21:41;;;;;;;0.50;0.50;;;22.50;78.40;;;;;;5096276;28;20526;-70
2023/06/13 07:24:07;;;;;;;0.33;0.33;;;22.50;78.20;;;;;;5096387;28;20081;-69
2023/06/13 07:26:33;;;;;;;0.30;0.30;;;22.50;78.90;;;;;;5096242;28;20036;-70
2023/06/13 07:28:58;;;;;;;0.60;0.50;;;22.40;78.20;;;;;;5096126;28;20417;-70
2023/06/13 07:31:24;;;;;;;0.37;0.37;;;22.50;78.20;;;;;;5096063;28;20119;-70
2023/06/13 07:33:50;;;;;;;0.30;0.30;;;22.40;78.50;;;;;;5096175;28;20032;-69
2023/06/13 07:36:16;;;;;;;0.30;0.30;;;22.60;78.40;;;;;;5095989;28;20353;-69
2023/06/13 07:38:42;;;;;;;0.30;0.30;;;22.60;77.10;;;;;;5096530;28;20048;-70
2023/06/13 07:41:10;;;;;;;1.85;1.10;;;22.70;78.40;;;;;;5095953;28;20047;-70
2023/06/13 07:43:35;;;;;;;0.82;0.80;;;22.80;78.30;;;;;;5095821;28;20039;-69
2023/06/13 07:46:01;;;;;;;0.30;0.30;;;22.90;78.30;;;;;;5095571;28;20040;-70
2023/06/13 07:48:26;;;;;;;0.40;0.40;;;23.00;78.40;;;;;;5095704;28;20083;-70
2023/06/13 07:50:52;;;;;;;0.30;0.30;;;23.20;79.20;;;;;;5095696;28;20066;-70
2023/06/13 07:53:17;;;;;;;0.77;0.67;;;23.30;77.10;;;;;;5095663;28;20051;-70
2023/06/13 07:55:46;;;;;;;0.37;0.37;;;23.30;77.40;;;;;;5095544;28;20059;-69
2023/06/13 07:58:13;;;;;;;0.30;0.30;;;23.40;77.50;;;;;;5095252;28;20036;-69
2023/06/13 08:00:39;;;;;;;0.30;0.30;;;23.50;77.10;;;;;;5095515;28;20074;-70
2023/06/13 08:03:04;;;;;;;0.77;0.77;;;23.70;77.10;;;;;;5094686;28;20036;-70
2023/06/13 08:05:30;;;;;;;0.37;0.37;;;23.80;75.70;;;;;;5095103;28;20044;-70
2023/06/13 08:07:57;;;;;;;0.30;0.30;;;23.80;75.90;;;;;;5095245;28;20127;-69
2023/06/13 08:10:23;;;;;;;0.20;0.20;;;23.70;75.00;;;;;;5095379;28;20417;-70
2023/06/13 08:12:49;;;;;;;0.30;0.30;;;23.90;75.60;;;;;;5095180;28;20028;-69
2023/06/13 08:15:15;;;;;;;0.90;0.87;;;24.00;75.80;;;;;;5095178;28;20448;-69
2023/06/13 08:17:44;;;;;;;0.60;0.60;;;24.20;75.90;;;;;;5095074;28;20044;-70
2023/06/13 08:20:10;;;;;;;0.50;0.50;;;24.30;75.80;;;;;;5095134;28;20644;-69
2023/06/13 08:22:40;;;;;;;0.20;0.20;;;24.40;74.90;;;;;;5095129;28;20032;-70
2023/06/13 08:25:09;;;;;;;0.77;0.60;;;24.40;74.00;;;;;;5094975;28;20047;-69
2023/06/13 08:27:39;;;;;;;0.38;0.38;;;24.60;74.00;;;;;;5094964;28;20032;-70
2023/06/13 08:30:06;;;;;;;2.60;1.20;;;24.80;74.20;;;;;;5095443;28;20075;-70
2023/06/13 08:32:32;;;;;;;;;;;25.00;74.30;;;;;;5095501;28;20052;-69
2023/06/13 08:35:01;;;;;;;0.30;0.30;;;25.00;73.10;;;;;;5094874;28;20004;-69
2023/06/13 08:37:27;;;;;;;2.45;0.52;;;25.10;74.00;;;;;;5094753;28;20418;-70
2023/06/13 08:39:53;;;;;;;0.20;0.20;;;25.20;73.60;;;;;;5094726;28;20032;-71
2023/06/13 08:42:20;;;;;;;0.35;0.35;;;25.30;73.60;;;;;;5094463;28;20473;-70
2023/06/13 08:44:45;;;;;;;;;;;25.30;73.80;;;;;;5094930;28;20085;-70
2023/06/13 08:47:12;;;;;;;0.40;0.40;;;25.40;72.50;;;;;;5094614;28;19924;-70
2023/06/13 08:49:38;;;;;;;0.20;0.20;;;25.60;73.60;;;;;;5094628;28;20069;-70
2023/06/13 08:52:08;;;;;;;0.30;0.30;;;25.70;72.60;;;;;;5094375;28;20119;-69
2023/06/13 08:54:36;;;;;;;0.30;0.30;;;25.70;71.70;;;;;;5094407;28;20477;-70
2023/06/13 08:57:09;;;;;;;0.30;0.30;;;25.80;72.50;;;;;;5094505;28;20402;-70
2023/06/13 08:59:36;;;;;;;0.30;0.30;;;25.90;72.60;;;;;;5094193;28;20118;-70
2023/06/13 09:02:04;;;;;;;0.28;0.28;;;26.00;72.50;;;;;;5094188;28;20043;-70
2023/06/13 09:04:32;;;;;;;0.30;0.30;;;26.10;71.90;;;;;;5094081;28;20052;-70
2023/06/13 09:06:58;;;;;;;0.30;0.30;;;25.90;71.10;;;;;;5093154;28;20062;-71
2023/06/13 09:09:25;;;;;;;1.08;0.90;;;25.90;71.30;;;;;;5093552;28;20036;-70
2023/06/13 09:11:51;;;;;;;;;;;26.10;70.90;;;;;;5093564;28;20058;-70
2023/06/13 09:14:18;;;;;;;0.20;0.20;;;26.20;72.70;;;;;;5094536;28;19916;-71
2023/06/13 09:16:45;;;;;;;0.38;0.38;;;26.20;70.40;;;;;;5093956;28;20054;-70
2023/06/13 09:19:11;;;;;;;0.40;0.40;;;26.20;71.70;;;;;;5094077;28;20461;-70
2023/06/13 09:21:38;;;;;;;0.30;0.30;;;26.30;71.50;;;;;;5093853;28;20071;-70
2023/06/13 09:24:06;;;;;;;0.30;0.30;;;26.50;70.10;;;;;;5093921;28;20414;-70
2023/06/13 09:26:32;;;;;;;0.73;0.55;;;26.60;69.30;;;;;;5093785;28;20036;-70
2023/06/13 09:28:58;;;;;;;0.60;0.60;;;26.60;69.60;;;;;;5094129;28;20036;-70
2023/06/13 09:31:27;;;;;;;0.25;0.25;;;26.70;70.20;;;;;;5093795;28;20443;-70
2023/06/13 09:33:54;;;;;;;0.57;0.43;;;26.70;69.00;;;;;;5093979;28;20052;-71
2023/06/13 09:36:22;;;;;;;0.30;0.30;;;26.90;68.40;;;;;;5093595;28;20036;-70
2023/06/13 09:38:48;;;;;;;0.82;0.82;;;27.00;68.70;;;;;;5093687;28;20036;-70
2023/06/13 09:41:14;;;;;;;0.30;0.30;;;27.10;68.50;;;;;;5093699;28;20416;-71
2023/06/13 09:43:40;;;;;;;1.10;0.65;;;27.10;67.30;;;;;;5093307;28;20512;-70
2023/06/13 09:46:10;;;;;;;0.30;0.30;;;27.10;66.90;;;;;;5093545;28;20036;-71
2023/06/13 09:48:36;;;;;;;0.50;0.50;;;27.20;66.70;;;;;;5093922;28;20122;-70
2023/06/13 09:51:04;;;;;;;0.40;0.40;;;27.40;66.80;;;;;;5093446;28;20122;-69
2023/06/13 09:53:30;;;;;;;0.30;0.30;;;27.50;67.40;;;;;;5092323;28;20056;-71
2023/06/13 09:55:56;;;;;;;0.30;0.30;;;27.50;66.80;;;;;;5093423;28;20051;-70
2023/06/13 09:58:21;;;;;;;2.27;0.67;;;27.60;67.20;;;;;;5093450;28;20052;-70
2023/06/13 10:00:48;;;;;;;0.30;0.30;;;27.60;68.20;;;;;;5093434;28;20071;-70
2023/06/13 10:03:16;;;;;;;0.30;0.30;;;27.70;68.60;;;;;;5093184;28;20452;-71
2023/06/13 10:05:43;;;;;;;0.20;0.20;;;27.70;66.30;;;;;;5092923;28;20392;-71
2023/06/13 10:08:08;;;;;;;;;;;27.60;67.00;;;;;;5093772;28;20043;-71
2023/06/13 10:10:34;;;;;;;0.20;0.20;;;27.60;66.20;;;;;;5096694;28;19916;-70
2023/06/13 10:13:03;;;;;;;0.30;0.30;;;27.70;67.10;;;;;;5097474;28;20039;-71
2023/06/13 10:15:31;;;;;;;0.22;0.22;;;27.80;66.00;;;;;;5097583;28;20093;-70
2023/06/13 10:18:06;;;;;;;0.20;0.20;;;27.80;65.50;;;;;;5097314;28;20124;-71
2023/06/13 10:20:34;;;;;;;0.30;0.30;;;27.80;64.40;;;;;;5097751;28;20044;-70
2023/06/13 10:23:00;;;;;;;0.32;0.30;;;27.80;64.30;;;;;;5097024;28;20051;-71
2023/06/13 10:25:30;;;;;;;0.45;0.45;;;27.90;66.80;;;;;;5097374;28;20039;-70
2023/06/13 10:28:07;;;;;;;0.20;0.20;;;27.90;66.00;;;;;;5097284;28;20036;-70
2023/06/13 10:30:59;;;;;;;0.20;0.20;;;28.20;63.60;;;;;;5097245;28;20529;-71
2023/06/13 10:33:38;;;;;;;0.20;0.20;;;28.20;64.20;;;;;;5097750;28;20044;-71
2023/06/13 10:36:11;;;;;;;0.30;0.30;;;28.30;63.60;;;;;;5097290;28;20491;-71
2023/06/13 10:38:57;;;;;;;0.52;0.52;;;28.30;63.00;;;;;;5096063;28;20044;-72
2023/06/13 10:41:37;;;;;;;0.60;0.40;;;28.50;64.50;;;;;;5097366;28;20078;-71
2023/06/13 10:44:19;;;;;;;0.30;0.30;;;28.50;62.60;;;;;;5097063;28;20545;-71
2023/06/13 10:46:45;;;;;;;0.43;0.40;;;28.60;63.20;;;;;;5096807;28;20039;-70
2023/06/13 10:49:17;;;;;;;0.20;0.20;;;28.70;63.40;;;;;;5096927;28;20032;-71
2023/06/13 10:51:44;;;;;;;1.17;0.85;;;28.60;61.90;;;;;;5096779;28;20476;-71
2023/06/13 10:54:11;;;;;;;0.30;0.30;;;28.60;61.50;;;;;;5096584;28;20539;-71
2023/06/13 10:56:41;;;;;;;0.30;0.30;;;28.70;61.40;;;;;;5095513;28;20039;-71
2023/06/13 10:59:09;;;;;;;0.30;0.30;;;28.60;60.40;;;;;;5096644;28;20040;-71
2023/06/13 11:01:36;;;;;;;0.60;0.60;;;28.70;61.20;;;;;;5096605;28;20040;-70
2023/06/13 11:04:16;;;;;;;0.30;0.30;;;28.70;61.00;;;;;;5096633;28;20052;-70
2023/06/13 11:06:45;;;;;;;0.38;0.38;;;28.60;62.00;;;;;;5095436;28;20052;-71
2023/06/13 11:09:24;;;;;;;0.35;0.35;;;28.70;62.40;;;;;;5096310;28;20476;-71
2023/06/13 11:11:58;;;;;;;2.35;0.40;;;29.00;63.00;;;;;;5096392;28;20164;-71
2023/06/13 11:14:25;;;;;;;0.47;0.47;;;28.90;60.90;;;;;;5096484;28;20043;-72
2023/06/13 11:16:52;;;;;;;0.28;0.28;;;28.80;61.50;;;;;;5095125;28;20047;-70
2023/06/13 11:19:26;;;;;;;0.40;0.30;;;28.80;61.60;;;;;;5096312;28;20047;-70
2023/06/13 11:21:58;;;;;;;0.65;0.65;;;28.80;61.30;;;;;;5095152;28;20455;-71
2023/06/13 11:24:23;;;;;;;0.20;0.20;;;28.80;61.20;;;;;;5096305;28;20040;-71
2023/06/13 11:26:49;;;;;;;0.30;0.30;;;28.80;60.20;;;;;;5096237;28;20051;-71
2023/06/13 11:29:15;;;;;;;0.50;0.50;;;28.90;61.40;;;;;;5096160;28;20082;-70
2023/06/13 11:31:42;;;;;;;0.55;0.55;;;28.90;60.70;;;;;;5096155;28;20368;-71
2023/06/13 11:34:15;;;;;;;;;;;29.00;63.60;;;;;;5096503;28;20379;-70
2023/06/13 11:36:43;;;;;;;0.38;0.38;;;29.00;60.60;;;;;;5096146;28;20403;-70
2023/06/13 11:39:14;;;;;;;0.57;0.57;;;28.80;60.80;;;;;;5095832;28;20123;-71
2023/06/13 11:41:40;;;;;;;0.63;0.63;;;28.70;60.70;;;;;;5095767;28;20044;-72
2023/06/13 11:44:06;;;;;;;0.30;0.30;;;28.70;61.10;;;;;;5095788;28;20032;-71
2023/06/13 11:46:32;;;;;;;4.07;1.20;;;28.60;60.10;;;;;;5112134;28;20079;-71
2023/06/13 11:48:58;;;;;;;0.65;0.55;;;28.60;60.90;;;;;;5095652;28;20113;-71
2023/06/13 11:51:27;;;;;;;0.30;0.30;;;28.80;60.60;;;;;;5095576;28;20472;-71
2023/06/13 11:53:56;;;;;;;0.40;0.40;;;28.80;61.10;;;;;;5095596;28;20094;-71
2023/06/13 11:56:23;;;;;;;0.47;0.47;;;28.90;61.60;;;;;;5095382;28;20044;-71
2023/06/13 11:58:50;;;;;;;0.30;0.30;;;28.90;59.60;;;;;;5095457;28;20050;-72
2023/06/13 12:01:17;;;;;;;0.30;0.30;;;28.90;61.70;;;;;;5095513;28;20028;-71
2023/06/13 12:03:47;;;;;;;0.50;0.50;;;29.10;61.30;;;;;;5095447;28;20066;-72
2023/06/13 12:06:14;;;;;;;0.20;0.20;;;29.20;61.80;;;;;;5095864;28;20387;-71
2023/06/13 12:08:41;;;;;;;0.20;0.20;;;29.00;60.00;;;;;;5095395;28;20036;-70
2023/06/13 12:11:10;;;;;;;0.30;0.30;;;29.20;60.50;;;;;;5095246;28;20073;-71
2023/06/13 12:13:36;;;;;;;0.50;0.50;;;29.40;61.40;;;;;;5095274;28;20067;-71
2023/06/13 12:16:03;;;;;;;0.35;0.35;;;29.60;60.50;;;;;;5095376;28;20040;-71
2023/06/13 12:18:28;;;;;;;0.30;0.30;;;29.50;60.30;;;;;;5095121;28;20032;-70
2023/06/13 12:20:56;;;;;;;0.50;0.50;;;29.50;61.30;;;;;;5095156;28;20042;-72
2023/06/13 12:23:23;;;;;;;0.30;0.30;;;29.60;59.60;;;;;;5095159;28;20040;-71
2023/06/13 12:25:50;;;;;;;0.57;0.55;;;29.70;59.50;;;;;;5095098;28;20119;-72
2023/06/13 12:28:17;;;;;;;0.32;0.32;;;29.70;60.50;;;;;;5095027;28;20418;-72
2023/06/13 12:30:45;;;;;;;0.40;0.40;;;29.70;60.40;;;;;;5095015;28;20114;-71
2023/06/13 12:33:14;;;;;;;0.20;0.20;;;29.70;59.60;;;;;;5094736;28;20044;-72
2023/06/13 12:35:56;;;;;;;0.20;0.20;;;29.80;61.60;;;;;;5094832;28;20036;-72
2023/06/13 12:38:26;;;;;;;0.65;0.65;;;29.70;61.00;;;;;;5094728;28;20043;-71
2023/06/13 12:40:52;;;;;;;0.40;0.40;;;29.70;59.50;;;;;;5094688;28;20479;-71
2023/06/13 12:43:24;;;;;;;1.35;0.63;;;29.70;59.60;;;;;;5094719;28;20051;-70
2023/06/13 12:45:50;;;;;;;0.20;0.20;;;29.80;60.40;;;;;;5094711;28;20478;-71
2023/06/13 12:48:19;;;;;;;0.40;0.40;;;29.90;58.70;;;;;;5094849;28;20383;-71
2023/06/13 12:50:49;;;;;;;0.40;0.38;;;29.80;60.20;;;;;;5094561;28;20085;-71
2023/06/13 12:53:22;;;;;;;0.30;0.30;;;29.70;59.80;;;;;;5094252;28;20498;-70